createdAt,value
2018-05-25T00:02:03.760Z,28.43
2018-05-25T00:04:31.404Z,28.97
2018-05-25T00:06:59.035Z,28.40
2018-05-25T00:09:26.651Z,28.60
2018-05-25T00:11:55.018Z,28.57
2018-05-25T00:14:22.617Z,30.17
2018-05-25T00:16:50.235Z,30.40
2018-05-25T00:19:17.813Z,29.10
2018-05-25T00:21:45.417Z,30.53
2018-05-25T00:24:16.658Z,30.87
2018-05-25T00:26:44.268Z,30.50
2018-05-25T00:29:11.933Z,30.63
2018-05-25T00:31:39.509Z,32.97
2018-05-25T00:34:07.124Z,30.50
2018-05-25T00:36:34.741Z,31.90
2018-05-25T00:39:02.351Z,32.33
2018-05-25T00:41:30.012Z,32.93
2018-05-25T00:43:58.365Z,32.87
2018-05-25T00:46:26.018Z,32.43
2018-05-25T00:48:53.605Z,34.87
2018-05-25T00:51:21.241Z,32.67
2018-05-25T00:53:48.832Z,33.17
2018-05-25T00:56:25.368Z,33.30
2018-05-25T00:58:53.791Z,33.80
2018-05-25T01:01:22.240Z,35.27
2018-05-25T01:03:49.841Z,35.20
2018-05-25T01:06:17.421Z,34.97
2018-05-25T01:08:45.851Z,33.83
2018-05-25T01:11:13.528Z,33.83
2018-05-25T01:13:41.172Z,34.13
2018-05-25T01:16:09.773Z,34.37
2018-05-25T01:18:37.360Z,34.50
2018-05-25T01:21:04.952Z,35.23
2018-05-25T01:23:33.284Z,34.13
2018-05-25T01:26:00.923Z,34.13
2018-05-25T01:28:28.574Z,34.80
2018-05-25T01:30:57.606Z,36.03
2018-05-25T01:33:25.227Z,34.87
2018-05-25T01:35:52.806Z,36.47
2018-05-25T01:38:20.403Z,35.23
2018-05-25T01:40:48.043Z,35.93
2018-05-25T01:43:15.669Z,36.93
2018-05-25T01:45:43.273Z,35.83
2018-05-25T01:48:10.884Z,37.00
2018-05-25T01:50:38.499Z,35.30
2018-05-25T01:53:06.884Z,34.87
2018-05-25T01:55:34.559Z,34.90
2018-05-25T01:58:02.150Z,38.20
2018-05-25T02:00:29.732Z,36.77
2018-05-25T02:02:57.319Z,34.97
2018-05-25T02:05:25.004Z,37.40
2018-05-25T02:07:53.350Z,37.90
2018-05-25T02:10:20.957Z,39.43
2018-05-25T02:12:49.317Z,38.70
2018-05-25T02:15:16.985Z,39.23
2018-05-25T02:17:44.577Z,38.50
2018-05-25T02:20:12.932Z,39.67
2018-05-25T02:22:41.303Z,41.10
2018-05-25T02:25:08.895Z,40.73
2018-05-25T02:27:36.528Z,40.97
2018-05-25T02:30:04.137Z,41.27
2018-05-25T02:32:31.723Z,40.53
2018-05-25T02:34:59.305Z,41.43
2018-05-25T02:37:26.955Z,41.30
2018-05-25T02:39:54.541Z,40.63
2018-05-25T02:42:22.148Z,41.33
2018-05-25T02:44:50.325Z,43.97
2018-05-25T02:47:17.946Z,42.57
2018-05-25T02:49:45.538Z,41.80
2018-05-25T02:52:13.095Z,43.33
2018-05-25T02:54:40.713Z,42.57
2018-05-25T02:57:08.359Z,42.00
2018-05-25T02:59:35.937Z,44.07
2018-05-25T03:02:05.107Z,43.40
2018-05-25T03:04:32.727Z,41.97
2018-05-25T03:07:00.355Z,44.33
2018-05-25T03:09:28.713Z,43.13
2018-05-25T03:11:56.304Z,41.87
2018-05-25T03:14:24.677Z,43.90
2018-05-25T03:16:52.315Z,43.30
2018-05-25T03:19:19.921Z,43.57
2018-05-25T03:21:48.303Z,44.07
2018-05-25T03:24:16.660Z,44.27
2018-05-25T03:26:44.261Z,44.27
2018-05-25T03:29:11.851Z,43.07
2018-05-25T03:31:39.445Z,43.63
2018-05-25T03:34:07.015Z,43.50
2018-05-25T03:36:34.740Z,43.27
2018-05-25T03:39:02.320Z,45.00
2018-05-25T03:41:30.851Z,44.53
2018-05-25T03:43:59.202Z,43.73
2018-05-25T03:46:26.850Z,43.03
2018-05-25T03:48:54.418Z,44.10
2018-05-25T03:51:22.006Z,44.10
2018-05-25T03:53:49.599Z,44.20
2018-05-25T03:56:17.955Z,43.60
2018-05-25T03:59:10.185Z,45.03
2018-05-25T04:01:49.699Z,43.77
2018-05-25T04:04:17.757Z,45.27
2018-05-25T04:06:45.346Z,45.73
2018-05-25T04:09:12.934Z,44.93
2018-05-25T04:11:40.532Z,44.93
2018-05-25T04:14:08.168Z,44.73
2018-05-25T04:16:35.767Z,45.73
2018-05-25T04:19:04.104Z,44.30
2018-05-25T04:21:31.724Z,43.73
2018-05-25T04:23:59.956Z,45.33
2018-05-25T04:26:27.570Z,46.70
2018-05-25T04:28:55.166Z,45.00
2018-05-25T04:31:22.918Z,44.50
2018-05-25T04:33:50.555Z,46.67
2018-05-25T04:36:19.145Z,46.80
2018-05-25T04:38:46.745Z,46.20
2018-05-25T04:41:14.427Z,46.00
2018-05-25T04:43:42.074Z,45.70
2018-05-25T04:46:09.688Z,44.00
2018-05-25T04:48:37.316Z,43.67
2018-05-25T04:51:04.930Z,43.80
2018-05-25T04:53:33.353Z,45.37
2018-05-25T04:56:00.985Z,43.23
2018-05-25T04:58:28.651Z,44.10
2018-05-25T05:00:57.013Z,43.10
2018-05-25T05:03:24.622Z,42.63
2018-05-25T05:05:52.236Z,41.90
2018-05-25T05:08:19.824Z,40.97
2018-05-25T05:10:48.161Z,41.67
2018-05-25T05:13:15.791Z,38.87
2018-05-25T05:15:44.151Z,37.67
2018-05-25T05:18:11.801Z,38.47
2018-05-25T05:20:39.450Z,37.50
2018-05-25T05:23:07.140Z,37.40
2018-05-25T05:25:34.719Z,37.07
2018-05-25T05:28:03.118Z,36.30
2018-05-25T05:30:30.717Z,37.20
2018-05-25T05:32:58.296Z,35.70
2018-05-25T05:35:25.926Z,35.97
2018-05-25T05:37:53.630Z,33.97
2018-05-25T05:40:21.262Z,35.03
2018-05-25T05:42:48.873Z,34.80
2018-05-25T05:45:16.538Z,35.33
2018-05-25T05:47:44.172Z,37.30
2018-05-25T05:50:11.772Z,37.07
2018-05-25T05:52:39.350Z,38.03
2018-05-25T05:55:07.001Z,39.40
2018-05-25T05:57:34.627Z,39.13
2018-05-25T06:00:02.261Z,39.83
2018-05-25T06:02:30.635Z,39.93
2018-05-25T06:04:58.283Z,38.67
2018-05-25T06:07:26.977Z,36.83
2018-05-25T06:09:54.663Z,37.60
2018-05-25T06:12:23.039Z,38.47
2018-05-25T06:14:50.663Z,38.13
2018-05-25T06:17:18.253Z,38.07
2018-05-25T06:19:45.869Z,37.40
2018-05-25T06:22:13.507Z,38.17
2018-05-25T06:24:41.134Z,36.70
2018-05-25T06:27:08.736Z,36.97
2018-05-25T06:29:36.359Z,36.00
2018-05-25T06:32:03.986Z,36.10
2018-05-25T06:34:31.629Z,36.03
2018-05-25T06:36:59.239Z,35.80
2018-05-25T06:39:26.836Z,34.90
2018-05-25T06:41:54.421Z,35.10
2018-05-25T06:44:22.151Z,34.53
2018-05-25T06:46:49.728Z,35.10
2018-05-25T06:49:17.397Z,35.13
2018-05-25T06:51:44.996Z,34.20
2018-05-25T06:54:13.379Z,34.43
2018-05-25T06:56:41.057Z,34.10
2018-05-25T06:59:10.270Z,34.50
2018-05-25T07:01:37.941Z,34.33
2018-05-25T07:04:05.643Z,35.40
2018-05-25T07:06:33.691Z,34.60
2018-05-25T07:09:01.806Z,33.77
2018-05-25T07:11:29.424Z,34.93
2018-05-25T07:13:57.019Z,34.23
2018-05-25T07:16:24.608Z,32.93
2018-05-25T07:18:52.206Z,33.77
2018-05-25T07:21:19.781Z,34.27
2018-05-25T07:23:47.363Z,33.63
2018-05-25T07:26:15.703Z,33.47
2018-05-25T07:28:43.301Z,32.90
2018-05-25T07:31:11.680Z,32.63
2018-05-25T07:33:40.056Z,32.77
2018-05-25T07:36:08.452Z,32.67
2018-05-25T07:38:36.030Z,32.57
2018-05-25T07:41:03.660Z,31.23
2018-05-25T07:43:32.032Z,30.57
2018-05-25T07:45:59.699Z,31.33
2018-05-25T07:48:27.306Z,29.00
2018-05-25T07:50:54.924Z,29.20
2018-05-25T07:53:22.511Z,28.60
2018-05-25T07:55:50.868Z,29.97
2018-05-25T07:58:18.524Z,28.93
2018-05-25T08:00:46.178Z,26.90
2018-05-25T08:03:13.780Z,26.63
2018-05-25T08:05:42.161Z,25.97
2018-05-25T08:08:09.773Z,25.90
2018-05-25T08:10:38.129Z,26.63
2018-05-25T08:13:05.715Z,26.30
2018-05-25T08:15:33.381Z,26.90
2018-05-25T08:18:01.882Z,25.27
2018-05-25T08:20:34.551Z,25.80
2018-05-25T08:23:02.227Z,25.57
2018-05-25T08:25:29.974Z,25.50
2018-05-25T08:28:01.632Z,24.53
2018-05-25T08:31:00.058Z,23.17
2018-05-25T08:33:28.558Z,23.83
2018-05-25T08:35:56.954Z,24.27
2018-05-25T08:38:25.384Z,24.77
2018-05-25T08:40:53.072Z,25.47
2018-05-25T08:43:20.731Z,25.83
2018-05-25T08:46:18.261Z,28.00
2018-05-25T08:48:46.855Z,28.30
2018-05-25T08:51:14.481Z,27.83
2018-05-25T22:14:50.313Z,15.03
2018-05-25T22:17:18.663Z,14.43
2018-05-25T22:19:46.268Z,14.27
2018-05-25T22:22:13.863Z,14.70
2018-05-25T22:24:42.230Z,14.77
2018-05-25T22:27:09.831Z,15.10
2018-05-25T22:29:37.397Z,15.80
2018-05-25T22:32:05.024Z,15.13
2018-05-25T22:34:33.397Z,15.33
2018-05-25T22:37:00.980Z,15.47
2018-05-25T22:39:28.603Z,15.63
2018-05-25T22:41:55.698Z,15.93
2018-05-25T22:44:35.056Z,15.93
2018-05-25T22:47:14.504Z,16.03
2018-05-25T22:49:53.992Z,16.53
2018-05-25T22:52:27.576Z,17.77
2018-05-25T22:54:57.742Z,16.80
2018-05-25T22:57:26.122Z,16.60
2018-05-25T22:59:53.746Z,16.80
2018-05-25T23:02:21.358Z,17.00
2018-05-25T23:04:48.962Z,17.17
2018-05-25T23:07:16.547Z,17.40
2018-05-25T23:09:44.909Z,18.43
2018-05-25T23:12:12.515Z,17.90
2018-05-25T23:14:40.093Z,17.97
2018-05-25T23:17:07.710Z,17.20
2018-05-25T23:19:35.324Z,17.80
2018-05-25T23:22:02.964Z,17.50
2018-05-25T23:24:30.554Z,17.80
2018-05-25T23:26:58.939Z,18.23
2018-05-25T23:29:26.572Z,18.63
2018-05-25T23:31:54.176Z,18.43
2018-05-25T23:34:21.768Z,18.60
2018-05-25T23:36:49.335Z,18.93
2018-05-25T23:39:16.905Z,18.73
2018-05-25T23:41:44.498Z,19.23
2018-05-25T23:44:12.833Z,20.33
2018-05-25T23:46:41.015Z,20.83
2018-05-25T23:49:08.614Z,20.23
2018-05-25T23:51:36.227Z,19.93
2018-05-25T23:54:03.818Z,20.23
2018-05-25T23:56:34.210Z,21.07
2018-05-25T23:59:01.848Z,21.80
